Terminal Aerodrome Forecast
Issued by NWS

Home | Current Version | Previous Version | Text Only | Print | Product List | Glossary On
Versions: 1 2 3 4 5 6 7 8 9 10 11 12 13 14 15 16
000
FTUS42 KTBW 171149
TAFPGD
TAF
KPGD 171149Z 1712/1812 09004KT P6SM FEW015 SCT250
     FM171500 11008KT P6SM SCT035 SCT250
     FM172300 VRB03KT P6SM SCT250
     FM180600 VRB03KT 6SM BR SCT010 SCT250
     FM180900 VRB03KT 3SM BR BKN010=

USA.gov is the U.S. government's official web portal to all federal, state and local government web resources and services.